createdAt,value
2023-08-13T00:01:16.327Z,74.30
2023-08-13T00:03:43.452Z,74.34
2023-08-13T00:06:10.537Z,74.32
2023-08-13T00:08:37.454Z,74.42
2023-08-13T00:11:09.859Z,74.47
2023-08-13T00:13:37.116Z,74.70
2023-08-13T00:16:04.931Z,74.81
2023-08-13T00:18:32.731Z,74.94
2023-08-13T00:20:59.957Z,74.97
2023-08-13T00:23:27.230Z,74.86
2023-08-13T00:25:54.097Z,74.96
2023-08-13T00:28:21.221Z,75.13
2023-08-13T00:30:48.168Z,75.21
2023-08-13T00:33:15.037Z,75.28
2023-08-13T00:35:42.584Z,75.39
2023-08-13T00:38:09.547Z,75.33
2023-08-13T00:40:36.520Z,75.48
2023-08-13T00:43:04.463Z,75.65
2023-08-13T00:45:34.675Z,75.59
2023-08-13T00:48:01.766Z,75.72
2023-08-13T00:50:29.852Z,75.78
2023-08-13T00:52:56.886Z,75.85
2023-08-13T00:55:23.900Z,75.65
2023-08-13T00:57:51.067Z,75.60
2023-08-13T01:00:19.098Z,75.76
2023-08-13T01:02:46.008Z,75.86
2023-08-13T01:05:13.096Z,76.01
2023-08-13T01:08:10.893Z,76.08
2023-08-13T01:10:38.154Z,76.12
2023-08-13T01:13:22.881Z,76.10
2023-08-13T01:15:54.322Z,76.26
2023-08-13T01:18:23.053Z,76.39
2023-08-13T01:20:50.051Z,76.36
2023-08-13T01:23:17.032Z,76.45
2023-08-13T01:25:52.458Z,76.26
2023-08-13T01:28:37.274Z,76.30
2023-08-13T01:31:25.061Z,76.25
2023-08-13T01:33:52.987Z,76.03
2023-08-13T01:36:20.884Z,76.07
2023-08-13T01:38:48.230Z,75.90
2023-08-13T01:41:15.972Z,76.03
2023-08-13T01:46:57.747Z,76.19
2023-08-13T01:49:25.220Z,76.12
2023-08-13T01:51:52.054Z,76.35
2023-08-13T01:54:18.948Z,76.64
2023-08-13T01:56:45.861Z,76.59
2023-08-13T01:59:12.716Z,76.83
2023-08-13T02:01:39.634Z,76.83
2023-08-13T02:04:06.877Z,77.08
2023-08-13T02:06:35.879Z,77.08
2023-08-13T02:09:03.434Z,77.03
2023-08-13T02:11:30.473Z,76.71
2023-08-13T02:13:57.353Z,76.77
2023-08-13T02:16:24.312Z,76.80
2023-08-13T02:18:51.277Z,76.79
2023-08-13T02:21:19.454Z,76.73
2023-08-13T02:23:46.876Z,76.90
2023-08-13T02:26:15.097Z,77.00
2023-08-13T02:28:44.516Z,77.13
2023-08-13T02:31:11.511Z,76.97
2023-08-13T02:33:38.527Z,77.10
2023-08-13T02:36:05.567Z,77.25
2023-08-13T02:38:32.500Z,77.48
2023-08-13T02:40:59.426Z,77.71
2023-08-13T02:43:29.033Z,77.65
2023-08-13T02:45:55.845Z,77.67
2023-08-13T02:48:22.820Z,77.72
2023-08-13T02:50:49.762Z,77.97
2023-08-13T02:53:16.918Z,77.97
2023-08-13T02:55:43.869Z,77.94
2023-08-13T02:58:10.947Z,78.22
2023-08-13T03:00:38.123Z,78.30
2023-08-13T03:03:05.295Z,78.15
2023-08-13T03:05:32.980Z,78.30
2023-08-13T03:07:59.975Z,78.29
2023-08-13T03:10:27.155Z,78.23
2023-08-13T03:12:54.048Z,78.44
2023-08-13T03:15:21.092Z,78.47
2023-08-13T03:17:48.278Z,78.36
2023-08-13T03:20:15.193Z,78.49
2023-08-13T03:22:42.123Z,78.44
2023-08-13T03:25:09.356Z,78.60
2023-08-13T03:27:36.303Z,78.69
2023-08-13T03:30:04.232Z,78.71
2023-08-13T03:32:31.231Z,78.62
2023-08-13T03:34:58.157Z,78.56
2023-08-13T03:37:25.221Z,78.68
2023-08-13T03:39:52.233Z,78.58
2023-08-13T03:42:19.087Z,78.68
2023-08-13T03:44:46.427Z,78.83
2023-08-13T03:47:13.402Z,78.65
2023-08-13T03:49:40.689Z,78.95
2023-08-13T03:52:10.268Z,78.98
2023-08-13T03:54:37.214Z,78.97
2023-08-13T03:57:04.329Z,79.07
2023-08-13T03:59:31.237Z,78.88
2023-08-13T04:01:59.563Z,79.13
2023-08-13T04:04:26.645Z,79.02
2023-08-13T04:06:53.682Z,79.04
2023-08-13T04:09:20.533Z,79.21
2023-08-13T04:11:47.446Z,79.10
2023-08-13T04:14:14.320Z,79.06
2023-08-13T04:16:41.130Z,79.16
2023-08-13T04:19:08.731Z,78.93
2023-08-13T04:21:35.622Z,79.13
2023-08-13T04:24:02.638Z,78.82
2023-08-13T04:26:29.639Z,79.01
2023-08-13T04:28:56.565Z,79.05
2023-08-13T04:31:23.540Z,78.91
2023-08-13T04:33:50.463Z,79.31
2023-08-13T04:36:17.476Z,79.14
2023-08-13T04:38:44.433Z,79.26
2023-08-13T04:41:11.486Z,79.21
2023-08-13T04:43:38.409Z,79.35
2023-08-13T04:46:05.338Z,79.23
2023-08-13T04:48:49.561Z,79.23
2023-08-13T04:51:17.890Z,79.16
2023-08-13T04:53:46.308Z,79.15
2023-08-13T04:56:13.504Z,79.02
2023-08-13T04:58:40.519Z,78.75
2023-08-13T05:01:08.088Z,79.07
2023-08-13T05:03:35.063Z,79.23
2023-08-13T05:06:01.918Z,79.20
2023-08-13T05:08:29.129Z,79.17
2023-08-13T05:10:56.088Z,79.08
2023-08-13T05:13:22.961Z,79.19
2023-08-13T05:15:50.049Z,78.94
2023-08-13T05:18:16.948Z,78.79
2023-08-13T05:20:43.755Z,78.40
2023-08-13T05:23:10.802Z,78.19
2023-08-13T05:25:39.230Z,78.11
2023-08-13T05:28:07.666Z,78.04
2023-08-13T05:30:39.797Z,78.26
2023-08-13T05:33:07.225Z,78.09
2023-08-13T05:35:34.227Z,78.27
2023-08-13T05:38:01.171Z,78.30
2023-08-13T05:40:28.128Z,78.12
2023-08-13T05:42:55.160Z,78.04
2023-08-13T05:45:22.125Z,78.37
2023-08-13T05:47:49.414Z,78.38
2023-08-13T05:50:16.576Z,78.67
2023-08-13T05:52:43.701Z,78.52
2023-08-13T05:55:10.721Z,78.58
2023-08-13T05:57:37.670Z,78.56
2023-08-13T06:00:10.985Z,78.49
2023-08-13T06:02:38.520Z,78.35
2023-08-13T06:05:07.032Z,78.01
2023-08-13T06:07:35.264Z,78.26
2023-08-13T06:10:04.644Z,77.70
2023-08-13T06:12:32.289Z,77.93
2023-08-13T06:15:23.914Z,77.58
2023-08-13T06:17:51.425Z,77.50
2023-08-13T06:20:19.830Z,77.49
2023-08-13T06:22:47.440Z,77.14
2023-08-13T06:25:14.792Z,77.22
2023-08-13T06:27:41.699Z,77.01
2023-08-13T06:30:11.111Z,76.83
2023-08-13T06:35:32.439Z,76.46
2023-08-13T06:38:02.702Z,76.40
2023-08-13T06:40:33.198Z,76.47
2023-08-13T06:43:00.512Z,76.33
2023-08-13T06:45:29.956Z,76.65
2023-08-13T06:47:58.212Z,76.53
2023-08-13T06:50:27.522Z,76.39
2023-08-13T06:52:54.720Z,76.67
2023-08-13T06:55:24.728Z,76.66
2023-08-13T06:57:52.166Z,76.57
2023-08-13T07:00:22.111Z,76.84
2023-08-13T07:02:53.249Z,76.89
2023-08-13T07:05:20.369Z,76.76
2023-08-13T07:07:49.644Z,76.44
2023-08-13T07:10:17.602Z,76.58
2023-08-13T07:12:46.696Z,76.66
2023-08-13T07:15:16.121Z,76.82
2023-08-13T07:17:44.578Z,76.68
2023-08-13T07:20:14.591Z,76.65
2023-08-13T07:22:46.773Z,76.59
2023-08-13T07:25:14.855Z,76.37
2023-08-13T07:27:51.878Z,76.46
2023-08-13T07:30:19.038Z,76.27
2023-08-13T07:32:47.394Z,76.27
2023-08-13T07:35:15.288Z,75.86
2023-08-13T07:37:45.782Z,75.76
2023-08-13T07:40:13.012Z,75.59
2023-08-13T07:42:42.287Z,75.71
2023-08-13T07:45:11.582Z,75.31
2023-08-13T07:47:38.688Z,75.27
2023-08-13T07:50:06.349Z,75.03
2023-08-13T07:52:34.864Z,74.99
2023-08-13T07:55:03.087Z,74.59
2023-08-13T07:57:31.584Z,74.38
2023-08-13T07:59:59.227Z,74.14
2023-08-13T08:02:26.475Z,74.23
2023-08-13T08:04:53.648Z,74.33
2023-08-13T08:07:22.741Z,74.10
2023-08-13T08:09:49.612Z,74.18
2023-08-13T08:12:17.181Z,73.90
2023-08-13T08:14:44.618Z,73.03
2023-08-13T08:17:11.975Z,73.30
2023-08-13T08:19:39.657Z,73.01
2023-08-13T08:22:06.730Z,73.15
2023-08-13T08:24:33.785Z,73.24
2023-08-13T08:27:00.891Z,72.99
2023-08-13T08:29:27.870Z,72.85
2023-08-13T08:31:54.963Z,72.60
2023-08-13T08:34:22.079Z,72.50
2023-08-13T08:36:51.355Z,72.10
2023-08-13T08:39:19.317Z,71.83
2023-08-13T08:41:47.306Z,71.48
2023-08-13T08:44:22.842Z,71.67
2023-08-13T08:46:54.757Z,71.04
2023-08-13T08:49:22.673Z,70.35
2023-08-13T08:51:51.128Z,69.84
2023-08-13T08:54:19.309Z,68.88
2023-08-13T08:56:46.402Z,68.67
2023-08-13T08:59:13.533Z,68.63
2023-08-13T09:01:41.323Z,65.94
2023-08-13T09:04:08.753Z,66.53
2023-08-13T09:06:54.879Z,66.90
2023-08-13T09:09:23.017Z,66.54
2023-08-13T09:11:50.720Z,65.57
2023-08-13T09:14:18.128Z,66.04
2023-08-13T09:16:47.425Z,65.85
2023-08-13T09:19:15.603Z,65.19
2023-08-13T09:21:55.052Z,65.43
2023-08-13T09:24:40.210Z,63.11
2023-08-13T09:27:09.168Z,63.25
2023-08-13T09:29:38.207Z,64.15
2023-08-13T09:32:06.272Z,64.60
2023-08-13T09:34:36.490Z,64.62
2023-08-13T09:37:03.880Z,64.52
2023-08-13T09:39:31.868Z,64.21
2023-08-13T09:42:00.395Z,63.82
2023-08-13T09:44:29.066Z,63.97
2023-08-13T09:47:03.622Z,64.20
2023-08-13T09:49:34.789Z,63.69
2023-08-13T09:52:10.078Z,63.84
2023-08-13T09:54:37.506Z,64.35
2023-08-13T09:57:09.317Z,63.98
2023-08-13T09:59:36.975Z,63.69
2023-08-13T10:02:08.300Z,63.13
2023-08-13T10:04:38.952Z,62.32
2023-08-13T10:07:07.637Z,62.86
2023-08-13T10:09:39.069Z,62.20
2023-08-13T10:12:07.713Z,62.42
2023-08-13T10:14:35.283Z,62.86
2023-08-13T10:17:07.231Z,63.03
2023-08-13T10:19:40.389Z,63.24
2023-08-13T10:22:14.880Z,63.14
2023-08-13T10:24:44.048Z,62.83
2023-08-13T10:27:13.621Z,62.51
2023-08-13T10:29:44.150Z,62.55
2023-08-13T10:32:14.805Z,62.70
2023-08-13T10:34:54.873Z,61.32
2023-08-13T10:37:23.762Z,60.26
2023-08-13T10:39:54.115Z,60.00
2023-08-13T10:42:33.870Z,60.18
2023-08-13T10:45:01.295Z,60.64
2023-08-13T10:47:44.856Z,60.59
2023-08-13T10:50:32.368Z,60.55
2023-08-13T10:53:05.369Z,59.47
2023-08-13T10:55:34.628Z,59.87
2023-08-13T10:58:01.827Z,59.05
2023-08-13T11:00:29.994Z,59.48
2023-08-13T11:03:21.120Z,59.09
2023-08-13T11:05:50.648Z,59.30
2023-08-13T11:08:21.145Z,58.67
2023-08-13T11:10:53.550Z,58.50
2023-08-13T11:13:21.646Z,57.64
2023-08-13T11:15:51.399Z,57.72
2023-08-13T11:18:19.449Z,58.50
2023-08-13T11:20:48.331Z,58.83
2023-08-13T11:23:20.491Z,58.50
2023-08-13T11:25:49.933Z,58.77
2023-08-13T11:28:26.764Z,58.86
2023-08-13T11:30:57.195Z,58.79
2023-08-13T11:33:26.944Z,58.28
2023-08-13T11:35:56.217Z,58.60
2023-08-13T11:38:48.560Z,58.56
2023-08-13T11:41:17.651Z,57.92
2023-08-13T11:43:59.462Z,57.61
2023-08-13T11:47:16.580Z,57.50
2023-08-13T11:50:02.015Z,57.14
2023-08-13T11:52:29.788Z,56.99
2023-08-13T11:54:57.558Z,57.02
2023-08-13T11:57:24.782Z,55.69
2023-08-13T11:59:57.470Z,56.13
2023-08-13T12:02:26.276Z,56.37
2023-08-13T12:04:55.264Z,56.55
2023-08-13T12:07:22.301Z,56.18
2023-08-13T12:09:49.740Z,56.28
2023-08-13T12:12:18.171Z,55.89
2023-08-13T12:15:15.703Z,56.30
2023-08-13T12:17:58.477Z,56.62
2023-08-13T12:20:30.335Z,56.42
2023-08-13T12:23:17.588Z,56.13
2023-08-13T12:25:47.934Z,56.38
2023-08-13T12:28:15.304Z,55.73
2023-08-13T12:30:42.715Z,54.82
2023-08-13T13:00:28.584Z,55.96
2023-08-13T13:02:58.937Z,55.82
2023-08-13T13:05:26.278Z,56.06
2023-08-13T13:07:55.022Z,56.41
2023-08-13T13:10:25.397Z,56.37
2023-08-13T13:12:52.907Z,56.70
2023-08-13T13:15:21.254Z,56.86
2023-08-13T13:20:35.377Z,57.27
2023-08-13T13:23:04.239Z,57.14
2023-08-13T13:25:31.528Z,57.25
2023-08-13T13:28:01.099Z,56.96
2023-08-13T13:30:33.018Z,56.68
2023-08-13T13:33:07.847Z,56.71
2023-08-13T13:36:22.913Z,56.82
2023-08-13T13:39:28.271Z,56.83
2023-08-13T13:41:58.814Z,56.67
2023-08-13T13:44:26.360Z,56.30
2023-08-13T13:46:54.404Z,56.28
2023-08-13T13:49:26.267Z,56.59
2023-08-13T13:51:54.511Z,56.44
2023-08-13T13:54:21.613Z,56.54
2023-08-13T13:56:51.517Z,56.36
2023-08-13T13:59:27.277Z,56.28
2023-08-13T14:01:54.407Z,56.11
2023-08-13T14:04:22.008Z,56.11
2023-08-13T14:06:49.751Z,55.66
2023-08-13T14:09:17.110Z,54.66
2023-08-13T14:11:44.442Z,54.54
2023-08-13T14:14:11.447Z,54.83
2023-08-13T14:16:38.422Z,54.91
2023-08-13T14:19:05.477Z,55.09
2023-08-13T14:21:32.926Z,55.56
2023-08-13T14:24:01.384Z,55.64
2023-08-13T14:26:28.984Z,55.90
2023-08-13T14:28:56.313Z,55.45
2023-08-13T14:31:26.902Z,55.32
2023-08-13T14:33:54.361Z,55.88
2023-08-13T14:36:29.447Z,56.30
2023-08-13T14:38:56.584Z,56.47
2023-08-13T14:41:24.051Z,56.21
2023-08-13T14:43:51.287Z,55.89
2023-08-13T14:46:20.319Z,56.13
2023-08-13T14:48:48.671Z,56.32
2023-08-13T14:51:17.113Z,56.49
2023-08-13T14:53:44.246Z,56.66
2023-08-13T14:56:11.169Z,56.80
2023-08-13T14:58:38.069Z,56.97
2023-08-13T15:01:05.191Z,56.65
2023-08-13T15:03:32.372Z,56.61
2023-08-13T15:05:59.500Z,56.40
2023-08-13T15:08:26.845Z,56.13
2023-08-13T15:10:53.860Z,56.10
2023-08-13T15:13:20.788Z,56.06
2023-08-13T15:15:48.038Z,56.04
2023-08-13T15:18:15.315Z,56.18
2023-08-13T15:20:42.144Z,56.16
2023-08-13T15:23:09.070Z,56.11
2023-08-13T15:25:54.340Z,56.35
2023-08-13T15:28:22.634Z,56.33
2023-08-13T15:30:54.168Z,56.27
2023-08-13T15:33:21.214Z,56.11
2023-08-13T15:35:54.426Z,56.28
2023-08-13T15:38:23.537Z,55.97
2023-08-13T15:40:51.285Z,55.86
2023-08-13T15:43:18.264Z,55.72
2023-08-13T15:45:45.335Z,55.52
2023-08-13T15:48:12.386Z,55.44
2023-08-13T15:50:42.745Z,55.15
2023-08-13T15:53:24.745Z,55.31
2023-08-13T15:55:53.402Z,55.29
2023-08-13T15:58:23.289Z,55.41
2023-08-13T16:00:55.395Z,55.33
2023-08-13T16:03:23.103Z,55.42
2023-08-13T16:05:52.710Z,55.65
2023-08-13T16:08:20.057Z,55.81
2023-08-13T16:10:58.493Z,55.95
2023-08-13T16:13:29.446Z,55.87
2023-08-13T16:15:58.397Z,55.77
2023-08-13T16:18:28.101Z,55.81
2023-08-13T16:20:56.608Z,55.86
2023-08-13T16:23:24.158Z,55.80
2023-08-13T16:25:53.608Z,56.27
2023-08-13T16:28:21.083Z,56.67
2023-08-13T16:30:49.978Z,56.58
2023-08-13T16:33:17.989Z,56.47
2023-08-13T16:35:46.844Z,56.57
2023-08-13T16:38:15.125Z,56.85
2023-08-13T16:40:44.444Z,56.81
2023-08-13T16:43:17.810Z,57.13
2023-08-13T16:45:45.819Z,57.39
2023-08-13T16:48:16.742Z,57.36
2023-08-13T16:50:44.317Z,57.84
2023-08-13T16:53:11.277Z,58.14
2023-08-13T16:55:39.615Z,58.49
2023-08-13T16:58:07.428Z,58.91
2023-08-13T17:00:34.757Z,59.51
2023-08-13T17:03:01.829Z,59.79
2023-08-13T17:05:29.087Z,60.01
2023-08-13T17:08:09.825Z,60.37
2023-08-13T17:10:40.749Z,60.46
2023-08-13T17:13:07.620Z,60.52
2023-08-13T17:15:34.538Z,60.84
2023-08-13T17:18:01.670Z,61.09
2023-08-13T17:20:28.613Z,61.30
2023-08-13T17:22:55.530Z,61.03
2023-08-13T17:25:22.816Z,61.75
2023-08-13T17:27:49.858Z,62.43
2023-08-13T17:30:17.149Z,62.58
2023-08-13T17:32:44.456Z,63.07
2023-08-13T17:35:11.480Z,63.17
2023-08-13T17:37:38.555Z,63.16
2023-08-13T17:40:06.291Z,63.21
2023-08-13T17:42:33.191Z,63.33
2023-08-13T17:45:00.397Z,63.46
2023-08-13T17:47:29.060Z,63.52
2023-08-13T17:49:58.850Z,63.67
2023-08-13T17:52:28.706Z,64.22
2023-08-13T17:54:58.828Z,64.27
2023-08-13T17:57:26.174Z,64.38
2023-08-13T17:59:54.434Z,64.55
2023-08-13T18:02:24.840Z,64.40
2023-08-13T18:04:53.402Z,64.62
2023-08-13T18:07:20.798Z,64.76
2023-08-13T18:09:48.132Z,65.10
2023-08-13T18:12:15.098Z,65.34
2023-08-13T18:14:42.133Z,65.59
2023-08-13T18:17:11.833Z,65.79
2023-08-13T18:19:39.235Z,66.01
2023-08-13T18:22:06.289Z,66.12
2023-08-13T18:24:34.578Z,66.26
2023-08-13T18:27:01.611Z,66.39
2023-08-13T18:29:32.077Z,66.53
2023-08-13T18:32:03.611Z,66.60
2023-08-13T18:34:30.669Z,66.84
2023-08-13T18:36:58.227Z,67.05
2023-08-13T18:39:25.752Z,67.27
2023-08-13T18:41:53.205Z,67.26
2023-08-13T18:44:20.653Z,67.49
2023-08-13T18:46:48.223Z,67.64
2023-08-13T18:49:15.333Z,67.92
2023-08-13T18:51:42.287Z,67.94
2023-08-13T18:54:09.270Z,67.92
2023-08-13T18:56:36.246Z,68.10
2023-08-13T18:59:03.361Z,67.86
2023-08-13T19:01:30.387Z,67.73
2023-08-13T19:03:57.284Z,67.98
2023-08-13T19:06:24.131Z,68.24
2023-08-13T19:08:51.698Z,68.31
2023-08-13T19:11:18.829Z,68.40
2023-08-13T19:13:45.706Z,68.46
2023-08-13T19:16:12.759Z,68.39
2023-08-13T19:18:39.691Z,68.62
2023-08-13T19:21:06.660Z,68.79
2023-08-13T19:23:33.742Z,68.91
2023-08-13T19:26:00.860Z,68.85
2023-08-13T19:28:28.562Z,68.98
2023-08-13T19:30:55.694Z,69.04
2023-08-13T19:33:22.852Z,68.85
2023-08-13T19:35:49.818Z,69.29
2023-08-13T19:38:17.347Z,69.36
2023-08-13T19:40:44.268Z,69.39
2023-08-13T19:43:11.185Z,69.56
2023-08-13T19:45:38.417Z,69.70
2023-08-13T19:48:06.566Z,69.96
2023-08-13T19:50:34.543Z,70.01
2023-08-13T19:53:05.867Z,70.17
2023-08-13T19:55:49.534Z,70.25
2023-08-13T19:58:22.913Z,69.90
2023-08-13T20:00:52.247Z,69.91
2023-08-13T20:03:27.425Z,70.14
2023-08-13T20:05:57.886Z,70.54
2023-08-13T20:08:26.478Z,70.82
2023-08-13T20:10:55.216Z,71.10
2023-08-13T20:13:22.811Z,71.16
2023-08-13T20:16:05.001Z,71.49
2023-08-13T20:18:33.762Z,71.45
2023-08-13T20:21:03.153Z,71.57
2023-08-13T20:23:33.410Z,71.68
2023-08-13T20:26:09.744Z,71.62
2023-08-13T20:28:42.029Z,71.42
2023-08-13T20:31:11.146Z,71.71
2023-08-13T20:33:44.166Z,71.46
2023-08-13T20:36:12.373Z,71.55
2023-08-13T20:38:39.857Z,71.59
2023-08-13T20:41:09.077Z,71.73
2023-08-13T20:43:36.590Z,71.65
2023-08-13T20:46:07.565Z,71.79
2023-08-13T20:48:35.180Z,71.82
2023-08-13T20:51:02.464Z,71.99
2023-08-13T20:53:31.828Z,72.03
2023-08-13T20:55:59.594Z,71.90
2023-08-13T20:58:28.021Z,71.98
2023-08-13T21:00:55.132Z,72.04
2023-08-13T21:03:22.510Z,71.94
2023-08-13T21:05:50.662Z,72.09
2023-08-13T21:08:17.821Z,71.78
2023-08-13T21:10:44.764Z,71.97
2023-08-13T21:13:11.722Z,71.96
2023-08-13T21:15:38.955Z,72.14
2023-08-13T21:18:36.257Z,71.91
2023-08-13T21:21:06.520Z,71.81
2023-08-13T21:23:43.266Z,71.86
2023-08-13T23:08:34.116Z,72.01
2023-08-13T23:11:33.826Z,71.83
2023-08-13T23:14:19.417Z,71.47
2023-08-13T23:16:54.353Z,71.68
2023-08-13T23:19:51.767Z,72.04
2023-08-13T23:27:21.339Z,72.55
